createdAt,value
2023-04-24T00:03:31.000Z,974.09
2023-04-24T00:08:26.000Z,974.12
2023-04-24T00:13:20.000Z,974.13
2023-04-24T00:18:15.000Z,974.06
2023-04-24T00:23:09.000Z,974.01
2023-04-24T00:28:03.000Z,973.92
2023-04-24T00:32:57.000Z,973.93
2023-04-24T00:37:51.000Z,973.98
2023-04-24T00:42:45.000Z,974.11
2023-04-24T00:47:40.000Z,974.04
2023-04-24T00:52:34.000Z,974.02
2023-04-24T00:57:27.000Z,974.02
2023-04-24T01:02:21.000Z,973.93
2023-04-24T01:07:16.000Z,973.94
2023-04-24T01:12:10.000Z,973.86
2023-04-24T01:17:04.000Z,973.99
2023-04-24T01:21:59.000Z,973.85
2023-04-24T01:26:53.000Z,973.86
2023-04-24T01:31:49.000Z,973.86
2023-04-24T01:36:42.000Z,974.11
2023-04-24T01:41:38.000Z,974.09
2023-04-24T01:46:30.000Z,974.14
2023-04-24T01:51:24.000Z,974.24
2023-04-24T01:56:16.000Z,974.10
2023-04-24T02:01:10.000Z,974.26
2023-04-24T02:06:05.000Z,974.28
2023-04-24T02:10:59.000Z,974.32
2023-04-24T02:15:54.000Z,974.23
2023-04-24T02:20:48.000Z,974.29
2023-04-24T02:25:42.000Z,974.34
2023-04-24T02:30:36.000Z,974.39
2023-04-24T02:35:30.000Z,974.51
2023-04-24T02:40:24.000Z,974.45
2023-04-24T02:45:18.000Z,974.65
2023-04-24T02:50:12.000Z,974.64
2023-04-24T02:55:06.000Z,974.69
2023-04-24T03:00:00.000Z,974.69
2023-04-24T03:04:54.000Z,974.77
2023-04-24T03:09:49.000Z,974.81
2023-04-24T03:14:43.000Z,974.81
2023-04-24T03:19:37.000Z,974.78
2023-04-24T03:24:31.000Z,974.88
2023-04-24T03:29:25.000Z,974.98
2023-04-24T03:34:18.000Z,975.00
2023-04-24T03:39:13.000Z,974.93
2023-04-24T03:44:07.000Z,975.01
2023-04-24T03:49:01.000Z,975.12
2023-04-24T03:53:54.000Z,975.19
2023-04-24T03:58:49.000Z,975.24
2023-04-24T04:03:42.000Z,975.31
2023-04-24T04:08:36.000Z,975.25
2023-04-24T04:13:30.000Z,975.43
2023-04-24T04:18:24.000Z,975.53
2023-04-24T04:23:19.000Z,975.49
2023-04-24T04:28:13.000Z,975.38
2023-04-24T04:33:07.000Z,975.35
2023-04-24T04:38:02.000Z,975.43
2023-04-24T04:42:56.000Z,975.50
2023-04-24T04:47:50.000Z,975.56
2023-04-24T04:52:44.000Z,975.56
2023-04-24T04:57:39.000Z,975.55
2023-04-24T05:02:33.000Z,975.62
2023-04-24T05:07:27.000Z,975.67
2023-04-24T05:12:20.000Z,975.82
2023-04-24T05:17:14.000Z,975.85
2023-04-24T05:22:08.000Z,975.91
2023-04-24T05:27:00.000Z,976.01
2023-04-24T05:31:55.000Z,976.06
2023-04-24T05:36:49.000Z,976.08
2023-04-24T05:41:43.000Z,976.18
2023-04-24T05:46:37.000Z,976.16
2023-04-24T05:51:31.000Z,976.18
2023-04-24T05:56:25.000Z,976.21
2023-04-24T06:01:20.000Z,976.15
2023-04-24T06:06:15.000Z,976.29
2023-04-24T06:11:09.000Z,976.15
2023-04-24T06:16:03.000Z,976.32
2023-04-24T06:20:57.000Z,976.22
2023-04-24T06:25:52.000Z,976.10
2023-04-24T06:30:47.000Z,976.08
2023-04-24T06:35:40.000Z,976.17
2023-04-24T06:40:34.000Z,976.22
2023-04-24T06:45:28.000Z,976.28
2023-04-24T06:50:22.000Z,976.22
2023-04-24T06:55:16.000Z,976.46
2023-04-24T07:00:10.000Z,976.30
2023-04-24T07:05:04.000Z,976.24
2023-04-24T07:09:58.000Z,976.27
2023-04-24T07:14:53.000Z,976.22
2023-04-24T07:19:47.000Z,976.27
2023-04-24T07:24:40.000Z,976.20
2023-04-24T07:29:31.000Z,976.39
2023-04-24T07:34:25.000Z,976.24
2023-04-24T07:39:19.000Z,976.27
2023-04-24T07:44:13.000Z,976.45
2023-04-24T07:49:08.000Z,976.39
2023-04-24T07:54:02.000Z,976.38
2023-04-24T07:58:56.000Z,976.38
2023-04-24T08:03:50.000Z,976.54
2023-04-24T08:08:45.000Z,976.65
2023-04-24T08:13:39.000Z,976.55
2023-04-24T08:18:31.000Z,976.52
2023-04-24T08:23:25.000Z,976.77
2023-04-24T08:28:20.000Z,976.75
2023-04-24T08:33:14.000Z,976.94
2023-04-24T08:38:09.000Z,976.78
2023-04-24T08:43:03.000Z,976.99
2023-04-24T08:47:57.000Z,976.98
2023-04-24T08:52:51.000Z,977.02
2023-04-24T08:57:46.000Z,977.25
2023-04-24T09:02:40.000Z,977.20
2023-04-24T09:07:34.000Z,977.29
2023-04-24T09:12:27.000Z,977.29
2023-04-24T09:17:21.000Z,977.22
2023-04-24T09:22:16.000Z,977.27
2023-04-24T09:27:10.000Z,977.45
2023-04-24T09:32:05.000Z,977.56
2023-04-24T09:36:59.000Z,977.84
2023-04-24T09:41:54.000Z,978.02
2023-04-24T09:46:47.000Z,978.21
2023-04-24T09:51:41.000Z,978.36
2023-04-24T09:56:33.000Z,978.42
2023-04-24T10:01:27.000Z,978.41
2023-04-24T10:06:19.000Z,978.41
2023-04-24T10:11:14.000Z,978.42
2023-04-24T10:16:08.000Z,978.37
2023-04-24T10:21:03.000Z,978.38
2023-04-24T10:25:58.000Z,978.33
2023-04-24T10:30:52.000Z,978.45
2023-04-24T10:35:55.000Z,978.46
2023-04-24T10:40:41.000Z,978.58
2023-04-24T10:45:34.000Z,978.57
2023-04-24T10:50:28.000Z,978.63
2023-04-24T10:55:22.000Z,978.61
2023-04-24T11:00:16.000Z,978.81
2023-04-24T11:05:10.000Z,978.73
2023-04-24T11:10:06.000Z,978.74
2023-04-24T11:14:59.000Z,978.92
2023-04-24T11:19:53.000Z,979.21
2023-04-24T11:24:46.000Z,979.32
2023-04-24T11:29:40.000Z,979.37
2023-04-24T11:34:34.000Z,979.48
2023-04-24T11:39:29.000Z,979.53
2023-04-24T11:44:23.000Z,979.64
2023-04-24T11:49:17.000Z,979.69
2023-04-24T11:54:11.000Z,979.63
2023-04-24T11:59:05.000Z,979.64
2023-04-24T12:04:00.000Z,979.71
2023-04-24T12:08:55.000Z,979.54
2023-04-24T12:13:50.000Z,979.70
2023-04-24T12:18:44.000Z,979.69
2023-04-24T12:23:38.000Z,979.80
2023-04-24T12:28:32.000Z,979.86
2023-04-24T12:33:25.000Z,979.78
2023-04-24T12:38:19.000Z,979.90
2023-04-24T12:43:12.000Z,979.97
2023-04-24T12:48:06.000Z,979.82
2023-04-24T12:53:01.000Z,979.85
2023-04-24T12:57:54.000Z,979.81
2023-04-24T13:02:50.000Z,979.87
2023-04-24T13:07:45.000Z,979.88
2023-04-24T13:12:38.000Z,979.82
2023-04-24T13:17:32.000Z,979.77
2023-04-24T13:22:26.000Z,979.81
2023-04-24T13:27:19.000Z,979.77
2023-04-24T13:32:12.000Z,979.87
2023-04-24T13:37:07.000Z,979.98
2023-04-24T13:42:01.000Z,979.98
2023-04-24T13:46:55.000Z,979.83
2023-04-24T13:51:50.000Z,979.76
2023-04-24T13:56:44.000Z,979.78
2023-04-24T14:01:38.000Z,979.69
2023-04-24T14:06:32.000Z,979.70
2023-04-24T14:11:25.000Z,979.65
2023-04-24T14:16:20.000Z,979.56
2023-04-24T14:21:13.000Z,979.52
2023-04-24T14:26:07.000Z,979.59
2023-04-24T14:31:01.000Z,979.55
2023-04-24T14:40:49.000Z,979.68
2023-04-24T14:45:43.000Z,979.86
2023-04-24T14:50:37.000Z,979.82
2023-04-24T14:55:31.000Z,979.72
2023-04-24T15:00:25.000Z,979.83
2023-04-24T15:05:20.000Z,979.83
2023-04-24T15:10:15.000Z,979.77
2023-04-24T15:15:09.000Z,979.84
2023-04-24T15:20:03.000Z,979.92
2023-04-24T15:24:57.000Z,979.87
2023-04-24T15:29:50.000Z,980.03
2023-04-24T15:34:44.000Z,980.16
2023-04-24T15:39:39.000Z,979.97
2023-04-24T15:44:34.000Z,979.98
2023-04-24T15:49:28.000Z,979.82
2023-04-24T15:54:22.000Z,979.89
2023-04-24T15:59:15.000Z,979.89
2023-04-24T16:04:10.000Z,979.90
2023-04-24T16:09:06.000Z,979.92
2023-04-24T16:14:00.000Z,979.99
2023-04-24T16:18:54.000Z,979.94
2023-04-24T16:23:49.000Z,979.90
2023-04-24T16:28:40.000Z,979.81
2023-04-24T16:33:33.000Z,979.87
2023-04-24T16:38:26.000Z,979.90
2023-04-24T16:43:20.000Z,979.91
2023-04-24T16:48:12.000Z,979.98
2023-04-24T16:53:06.000Z,979.93
2023-04-24T16:58:01.000Z,979.88
2023-04-24T17:02:55.000Z,980.01
2023-04-24T17:07:49.000Z,980.02
2023-04-24T17:12:43.000Z,979.95
2023-04-24T17:17:37.000Z,979.83
2023-04-24T17:22:31.000Z,980.06
2023-04-24T17:27:24.000Z,980.12
2023-04-24T17:32:19.000Z,980.08
2023-04-24T17:37:13.000Z,980.13
2023-04-24T17:42:07.000Z,980.16
2023-04-24T17:47:01.000Z,980.15
2023-04-24T17:51:55.000Z,980.25
2023-04-24T17:56:48.000Z,980.28
2023-04-24T18:01:41.000Z,980.42
2023-04-24T18:06:37.000Z,980.35
2023-04-24T18:11:29.000Z,980.35
2023-04-24T18:16:23.000Z,980.35
2023-04-24T18:21:17.000Z,980.41
2023-04-24T18:26:12.000Z,980.46
2023-04-24T18:31:06.000Z,980.47
2023-04-24T18:36:00.000Z,980.48
2023-04-24T18:40:54.000Z,980.52
2023-04-24T18:45:48.000Z,980.62
2023-04-24T18:50:42.000Z,980.51
2023-04-24T18:55:35.000Z,980.51
2023-04-24T19:00:29.000Z,980.56
2023-04-24T19:05:22.000Z,980.69
2023-04-24T19:10:16.000Z,980.77
2023-04-24T19:15:11.000Z,980.75
2023-04-24T19:20:05.000Z,980.84
2023-04-24T19:24:59.000Z,980.94
2023-04-24T19:29:53.000Z,980.90
2023-04-24T19:34:47.000Z,981.06
2023-04-24T19:39:41.000Z,980.99
2023-04-24T19:44:35.000Z,981.02
2023-04-24T19:49:28.000Z,980.95
2023-04-24T19:54:22.000Z,981.09
2023-04-24T19:59:16.000Z,981.06
2023-04-24T20:04:11.000Z,981.01
2023-04-24T20:09:05.000Z,980.99
2023-04-24T20:13:59.000Z,981.06
2023-04-24T20:18:54.000Z,980.99
2023-04-24T20:23:47.000Z,981.11
2023-04-24T20:28:42.000Z,981.10
2023-04-24T20:33:36.000Z,981.18
2023-04-24T20:38:30.000Z,981.31
2023-04-24T20:43:24.000Z,981.38
2023-04-24T20:48:18.000Z,981.35
2023-04-24T20:53:12.000Z,981.28
2023-04-24T20:58:06.000Z,981.28
2023-04-24T21:03:00.000Z,981.34
2023-04-24T21:07:55.000Z,981.36
2023-04-24T21:12:49.000Z,981.41
2023-04-24T21:17:43.000Z,981.37
2023-04-24T21:22:37.000Z,981.38
2023-04-24T21:27:30.000Z,981.42
2023-04-24T21:32:25.000Z,981.35
2023-04-24T21:37:19.000Z,981.35
2023-04-24T21:42:11.000Z,981.34
2023-04-24T21:47:06.000Z,981.30
2023-04-24T21:52:00.000Z,981.33
2023-04-24T21:56:54.000Z,981.32
2023-04-24T22:01:49.000Z,981.39
2023-04-24T22:06:43.000Z,981.39
2023-04-24T22:11:37.000Z,981.45
2023-04-24T22:16:31.000Z,981.49
2023-04-24T22:21:26.000Z,981.44
2023-04-24T22:26:20.000Z,981.40
2023-04-24T22:31:14.000Z,981.42
2023-04-24T22:36:07.000Z,981.38
2023-04-24T22:41:01.000Z,981.38
2023-04-24T22:45:55.000Z,981.33
2023-04-24T22:50:50.000Z,981.27
2023-04-24T22:55:44.000Z,981.20
2023-04-24T23:00:38.000Z,981.28
2023-04-24T23:05:32.000Z,981.36
2023-04-24T23:10:25.000Z,981.33
2023-04-24T23:15:20.000Z,981.35
2023-04-24T23:20:14.000Z,981.46
2023-04-24T23:25:08.000Z,981.43
2023-04-24T23:30:02.000Z,981.37
2023-04-24T23:34:56.000Z,981.41
2023-04-24T23:39:50.000Z,981.47
2023-04-24T23:44:43.000Z,981.52
2023-04-24T23:49:37.000Z,981.40
2023-04-24T23:54:31.000Z,981.39
2023-04-24T23:59:25.000Z,981.34
